RORH(METAR)
10/15 15:00
RORH 150600Z 02021KT 8000 RA OVC025 24/21 Q1017 RMK A3005=
戻る
トップページへ戻る
IMOC Co,.Ltd.